createdAt,value
2022-10-11T00:02:17.302Z,12.80
2022-10-11T00:04:47.672Z,12.40
2022-10-11T00:07:17.506Z,12.85
2022-10-11T00:09:47.426Z,14.00
2022-10-11T00:12:17.318Z,14.00
2022-10-11T00:14:47.325Z,14.07
2022-10-11T00:17:17.144Z,13.80
2022-10-11T00:19:47.127Z,12.93
2022-10-11T00:22:16.891Z,14.75
2022-10-11T00:24:46.709Z,13.93
2022-10-11T00:27:16.409Z,13.70
2022-10-11T00:29:46.188Z,13.32
2022-10-11T00:32:16.619Z,11.65
2022-10-11T00:34:46.533Z,11.57
2022-10-11T00:37:16.390Z,12.63
2022-10-11T00:39:46.359Z,9.93
2022-10-11T00:42:16.560Z,10.30
2022-10-11T00:44:46.615Z,10.30
2022-10-11T00:47:23.366Z,10.98
2022-10-11T00:49:56.523Z,9.85
2022-10-11T00:52:33.234Z,10.73
2022-10-11T00:55:05.268Z,10.50
2022-10-11T00:57:36.769Z,12.10
2022-10-11T01:00:08.975Z,11.75
2022-10-11T01:02:39.145Z,11.50
2022-10-11T01:05:28.050Z,13.52
2022-10-11T01:07:58.704Z,13.20
2022-10-11T01:10:28.695Z,14.13
2022-10-11T01:13:06.072Z,12.90
2022-10-11T01:15:39.949Z,14.85
2022-10-11T01:18:15.949Z,13.98
2022-10-11T01:20:49.056Z,11.85
2022-10-11T01:23:24.996Z,11.68
2022-10-11T01:26:16.204Z,10.80
2022-10-11T01:29:04.250Z,11.50
2022-10-11T01:31:45.959Z,11.40
2022-10-11T01:34:26.355Z,10.27
2022-10-11T01:37:05.541Z,11.23
2022-10-11T01:39:39.819Z,12.07
2022-10-11T01:42:11.437Z,12.05
2022-10-11T01:44:41.455Z,12.18
2022-10-11T01:47:11.339Z,11.63
2022-10-11T01:49:41.138Z,9.98
2022-10-11T01:52:11.032Z,10.25
2022-10-11T01:55:09.863Z,9.05
2022-10-11T01:57:58.370Z,8.68
2022-10-11T02:00:30.170Z,8.68
2022-10-11T02:03:18.668Z,8.05
2022-10-11T02:05:59.934Z,7.75
2022-10-11T02:08:35.796Z,8.60
2022-10-11T02:11:25.867Z,8.30
2022-10-11T02:14:01.823Z,7.80
2022-10-11T02:16:34.963Z,6.72
2022-10-11T02:19:04.645Z,5.60
2022-10-11T02:21:34.634Z,5.80
2022-10-11T02:24:09.550Z,5.18
2022-10-11T02:26:39.887Z,5.80
2022-10-11T02:29:09.925Z,6.97
2022-10-11T02:31:39.712Z,8.13
2022-10-11T02:34:12.985Z,8.23
2022-10-11T02:36:48.763Z,7.80
2022-10-11T02:39:22.719Z,7.22
2022-10-11T02:41:52.479Z,7.60
2022-10-11T02:44:24.886Z,8.30
2022-10-11T02:46:54.620Z,8.02
2022-10-11T02:49:24.615Z,7.47
2022-10-11T02:51:54.603Z,7.90
2022-10-11T02:54:24.269Z,7.25
2022-10-11T02:56:54.059Z,8.60
2022-10-11T02:59:23.926Z,7.82
2022-10-11T03:01:53.988Z,6.97
2022-10-11T03:04:23.911Z,7.88
2022-10-11T03:06:53.912Z,7.30
2022-10-11T03:09:23.778Z,6.70
2022-10-11T03:11:53.911Z,9.35
2022-10-11T03:14:24.383Z,9.70
2022-10-11T03:16:54.249Z,7.38
2022-10-11T03:19:24.178Z,7.82
2022-10-11T03:21:54.242Z,6.80
2022-10-11T03:24:24.053Z,6.47
2022-10-11T03:26:54.116Z,7.40
2022-10-11T03:29:23.838Z,6.85
2022-10-11T03:31:53.890Z,7.20
2022-10-11T03:34:24.125Z,7.20
2022-10-11T03:36:53.900Z,7.10
2022-10-11T03:39:23.779Z,7.25
2022-10-11T03:41:53.639Z,6.93
2022-10-11T03:44:23.368Z,6.85
2022-10-11T03:46:53.074Z,5.65
2022-10-11T03:49:22.987Z,6.88
2022-10-11T03:51:52.989Z,6.80
2022-10-11T03:54:22.869Z,7.43
2022-10-11T03:56:52.717Z,6.80
2022-10-11T03:59:22.494Z,6.20
2022-10-11T04:01:52.127Z,6.20
2022-10-11T04:04:22.176Z,6.30
2022-10-11T04:06:51.876Z,6.05
2022-10-11T04:09:21.844Z,6.55
2022-10-11T04:11:51.663Z,7.28
2022-10-11T04:14:21.509Z,7.65
2022-10-11T04:16:51.207Z,7.80
2022-10-11T04:19:21.047Z,7.60
2022-10-11T04:21:50.853Z,6.68
2022-10-11T04:24:20.552Z,6.85
2022-10-11T04:26:50.410Z,7.07
2022-10-11T04:29:20.461Z,6.90
2022-10-11T04:31:50.270Z,6.75
2022-10-11T04:34:20.589Z,5.93
2022-10-11T04:36:50.340Z,6.63
2022-10-11T04:39:20.063Z,5.63
2022-10-11T04:41:50.106Z,5.60
2022-10-11T04:44:19.994Z,7.47
2022-10-11T04:46:49.884Z,6.30
2022-10-11T04:49:19.732Z,5.85
2022-10-11T04:51:49.682Z,5.20
2022-10-11T04:54:19.830Z,6.95
2022-10-11T04:56:49.795Z,6.82
2022-10-11T04:59:19.680Z,6.57
2022-10-11T05:01:49.584Z,3.85
2022-10-11T05:04:19.730Z,4.75
2022-10-11T05:06:49.695Z,4.07
2022-10-11T05:09:19.561Z,5.90
2022-10-11T05:11:49.564Z,6.25
2022-10-11T05:14:19.278Z,6.18
2022-10-11T05:16:49.670Z,5.97
2022-10-11T05:19:19.700Z,4.72
2022-10-11T05:21:49.605Z,6.70
2022-10-11T05:24:19.333Z,5.18
2022-10-11T05:26:49.317Z,4.90
2022-10-11T05:29:19.369Z,4.65
2022-10-11T05:31:49.562Z,4.65
2022-10-11T05:34:19.614Z,5.15
2022-10-11T05:36:49.383Z,5.32
2022-10-11T05:39:19.379Z,5.25
2022-10-11T05:41:49.151Z,4.53
2022-10-11T05:44:19.048Z,4.72
2022-10-11T05:46:48.788Z,4.00
2022-10-11T05:49:18.386Z,4.13
2022-10-11T05:51:48.401Z,3.90
2022-10-11T05:54:18.400Z,3.65
2022-10-11T05:56:47.965Z,4.40
2022-10-11T05:59:17.692Z,4.40
2022-10-11T06:01:47.608Z,3.83
2022-10-11T06:04:20.653Z,4.93
2022-10-11T06:06:50.379Z,4.43
2022-10-11T06:09:20.040Z,5.82
2022-10-11T06:11:49.967Z,4.90
2022-10-11T06:14:19.945Z,4.72
2022-10-11T06:16:49.749Z,5.80
2022-10-11T06:19:19.786Z,15.82
2022-10-11T06:21:50.168Z,6.78
2022-10-11T06:24:19.950Z,5.57
2022-10-11T06:26:51.343Z,4.25
2022-10-11T06:29:20.951Z,5.18
2022-10-11T06:31:51.746Z,5.25
2022-10-11T06:34:21.989Z,11.88
2022-10-11T06:36:51.646Z,11.40
2022-10-11T06:39:21.640Z,9.57
2022-10-11T06:41:51.534Z,7.53
2022-10-11T06:44:31.254Z,6.10
2022-10-11T06:47:18.193Z,6.75
2022-10-11T06:49:48.107Z,7.07
2022-10-11T06:52:17.804Z,8.18
2022-10-11T06:54:47.732Z,8.70
2022-10-11T06:57:18.117Z,10.43
2022-10-11T06:59:48.021Z,10.30
2022-10-11T07:02:17.948Z,9.77
2022-10-11T07:04:51.851Z,9.45
2022-10-11T07:07:21.905Z,9.00
2022-10-11T07:09:51.754Z,8.60
2022-10-11T07:12:22.328Z,9.23
2022-10-11T07:14:52.389Z,8.98
2022-10-11T07:17:22.650Z,9.57
2022-10-11T07:19:55.347Z,8.80
2022-10-11T07:22:25.417Z,9.02
2022-10-11T07:24:55.112Z,8.52
2022-10-11T07:27:25.686Z,9.27
2022-10-11T07:29:55.712Z,8.80
2022-10-11T07:32:26.051Z,8.57
2022-10-11T07:34:55.840Z,8.70
2022-10-11T07:37:25.720Z,8.40
2022-10-11T07:39:55.542Z,8.13
2022-10-11T07:42:25.222Z,7.97
2022-10-11T07:44:55.425Z,8.02
2022-10-11T07:47:25.332Z,7.90
2022-10-11T07:49:55.490Z,8.60
2022-10-11T07:52:25.491Z,8.27
2022-10-11T07:54:55.392Z,9.05
2022-10-11T07:57:25.421Z,7.70
2022-10-11T08:00:00.795Z,9.55
2022-10-11T08:02:30.753Z,8.20
2022-10-11T08:05:00.754Z,8.02
2022-10-11T08:07:31.406Z,7.03
2022-10-11T08:10:01.139Z,8.02
2022-10-11T08:12:30.873Z,8.27
2022-10-11T08:15:00.594Z,8.48
2022-10-11T08:17:30.281Z,7.97
2022-10-11T08:20:00.285Z,8.30
2022-10-11T08:22:30.191Z,8.57
2022-10-11T08:25:00.132Z,7.28
2022-10-11T08:27:30.063Z,7.57
2022-10-11T08:30:00.183Z,7.28
2022-10-11T08:32:30.771Z,6.78
2022-10-11T08:35:00.551Z,6.13
2022-10-11T08:37:30.379Z,6.88
2022-10-11T08:40:00.245Z,5.72
2022-10-11T08:42:44.399Z,6.32
2022-10-11T08:45:21.321Z,5.47
2022-10-11T08:47:51.139Z,5.60
2022-10-11T08:50:21.951Z,5.70
2022-10-11T08:52:53.636Z,5.72
2022-10-11T08:55:34.904Z,5.43
2022-10-11T08:58:04.562Z,5.30
2022-10-11T09:00:38.313Z,5.60
2022-10-11T09:03:26.630Z,5.57
2022-10-11T09:06:14.763Z,5.47
2022-10-11T09:08:50.862Z,6.45
2022-10-11T09:11:23.765Z,6.70
2022-10-11T09:13:53.953Z,6.13
2022-10-11T09:16:44.041Z,8.13
2022-10-11T09:19:29.307Z,8.60
2022-10-11T09:22:17.812Z,7.88
2022-10-11T09:24:53.876Z,9.27
2022-10-11T09:27:38.106Z,8.55
2022-10-11T09:30:17.946Z,9.45
2022-10-11T09:32:54.753Z,13.23
2022-10-11T09:35:24.898Z,14.95
2022-10-11T09:37:57.424Z,17.63
2022-10-11T09:40:39.750Z,17.65
2022-10-11T09:43:11.010Z,18.73
2022-10-11T09:45:49.403Z,19.25
2022-10-11T09:48:34.791Z,21.17
2022-10-11T09:51:17.871Z,22.20
2022-10-11T09:53:54.885Z,22.35
2022-10-11T09:56:25.298Z,25.70
2022-10-11T09:59:13.512Z,27.70
2022-10-11T10:01:44.370Z,33.35
2022-10-11T10:04:15.138Z,33.70
2022-10-11T10:06:44.811Z,37.80
2022-10-11T10:09:32.493Z,37.92
2022-10-11T10:12:02.248Z,37.80
2022-10-11T10:14:31.933Z,36.20
2022-10-11T10:17:05.986Z,36.35
2022-10-11T10:19:42.341Z,35.05
2022-10-11T10:22:21.168Z,35.72
2022-10-11T10:24:51.646Z,31.45
2022-10-11T10:27:24.372Z,27.75
2022-10-11T10:30:09.393Z,27.23
2022-10-11T10:32:39.434Z,26.25
2022-10-11T10:35:12.092Z,25.90
2022-10-11T10:37:44.316Z,27.80
2022-10-11T10:40:21.438Z,22.88
2022-10-11T10:42:51.406Z,23.80
2022-10-11T10:45:22.008Z,24.42
2022-10-11T10:48:12.428Z,21.70
2022-10-11T10:50:51.862Z,22.50
2022-10-11T10:53:31.975Z,21.75
2022-10-11T10:56:03.917Z,20.10
2022-10-11T10:58:33.789Z,19.27
2022-10-11T11:01:09.018Z,19.55
2022-10-11T11:03:42.019Z,19.90
2022-10-11T11:06:12.941Z,19.00
2022-10-11T11:08:55.158Z,19.30
2022-10-11T11:11:28.267Z,23.25
2022-10-11T11:14:02.802Z,25.42
2022-10-11T11:16:58.776Z,29.15
2022-10-11T11:19:46.830Z,28.92
2022-10-11T11:22:24.150Z,25.70
2022-10-11T11:25:12.021Z,25.83
2022-10-11T11:27:45.800Z,24.17
2022-10-11T11:30:20.016Z,25.50
2022-10-11T11:33:08.426Z,21.35
2022-10-11T11:35:45.423Z,23.48
2022-10-11T11:38:15.194Z,19.17
2022-10-11T11:40:50.580Z,17.25
2022-10-11T11:43:20.286Z,17.73
2022-10-11T11:45:50.224Z,15.77
2022-10-11T11:48:26.047Z,16.05
2022-10-11T11:51:04.757Z,14.57
2022-10-11T11:53:37.530Z,16.50
2022-10-11T11:56:09.312Z,16.80
2022-10-11T11:58:39.062Z,15.55
2022-10-11T12:01:31.075Z,16.67
2022-10-11T12:04:06.016Z,14.93
2022-10-11T12:06:47.767Z,14.57
2022-10-11T12:09:24.416Z,14.35
2022-10-11T12:12:01.681Z,15.60
2022-10-11T12:14:31.594Z,14.82
2022-10-11T12:17:19.697Z,16.08
2022-10-11T12:20:02.116Z,16.90
2022-10-11T12:22:32.040Z,18.13
2022-10-11T12:25:02.782Z,16.27
2022-10-11T12:27:38.916Z,14.40
2022-10-11T12:30:29.034Z,14.32
2022-10-11T12:33:06.927Z,14.68
2022-10-11T12:35:37.211Z,14.93
2022-10-11T12:38:07.915Z,16.70
2022-10-11T12:40:53.559Z,14.98
2022-10-11T12:43:37.484Z,14.05
2022-10-11T12:46:26.308Z,13.27
2022-10-11T12:49:17.224Z,13.98
2022-10-11T12:52:08.990Z,12.70
2022-10-11T12:54:42.237Z,13.63
2022-10-11T12:57:15.789Z,10.95
2022-10-11T12:59:48.362Z,11.23
2022-10-11T13:02:37.110Z,10.93
2022-10-11T13:05:27.389Z,11.40
2022-10-11T13:08:01.525Z,12.35
2022-10-11T13:10:36.466Z,10.95
2022-10-11T13:13:07.432Z,13.05
2022-10-11T13:15:40.296Z,11.68
2022-10-11T13:18:19.240Z,10.60
2022-10-11T13:20:52.077Z,10.75
2022-10-11T13:23:26.471Z,10.50
2022-10-11T13:25:56.943Z,10.98
2022-10-11T13:28:27.147Z,12.13
2022-10-11T13:30:58.531Z,12.30
2022-10-11T13:33:52.828Z,11.82
2022-10-11T13:36:22.900Z,12.23
2022-10-11T13:38:57.631Z,12.13
2022-10-11T13:41:34.276Z,12.52
2022-10-11T13:44:04.786Z,10.98
2022-10-11T13:46:34.758Z,11.00
2022-10-11T13:49:06.053Z,12.38
2022-10-11T13:51:35.851Z,11.27
2022-10-11T13:54:09.429Z,11.75
2022-10-11T13:57:01.043Z,12.20
2022-10-11T13:59:31.998Z,12.47
2022-10-11T14:02:06.411Z,14.05
2022-10-11T14:04:43.303Z,14.20
2022-10-11T14:07:37.291Z,13.27
2022-10-11T14:10:08.777Z,16.10
2022-10-11T14:12:45.044Z,15.02
2022-10-11T14:15:32.919Z,15.27
2022-10-11T14:18:03.247Z,15.48
2022-10-11T14:20:43.288Z,15.52
2022-10-11T14:23:15.060Z,15.70
2022-10-11T14:25:45.165Z,15.90
2022-10-11T14:28:15.169Z,14.30
2022-10-11T14:30:45.218Z,15.50
2022-10-11T14:33:15.919Z,13.07
2022-10-11T14:35:46.564Z,13.50
2022-10-11T14:38:16.336Z,14.90
2022-10-11T14:40:46.550Z,15.90
2022-10-11T14:43:16.567Z,15.05
2022-10-11T14:45:46.312Z,15.18
2022-10-11T14:48:26.661Z,14.82
2022-10-11T14:51:05.873Z,14.15
2022-10-11T14:53:40.651Z,13.65
2022-10-11T14:56:10.697Z,15.35
2022-10-11T14:58:40.643Z,14.52
2022-10-11T15:01:12.915Z,13.82
2022-10-11T15:03:43.332Z,14.43
2022-10-11T15:06:22.959Z,14.00
2022-10-11T15:08:56.151Z,14.45
2022-10-11T15:11:25.820Z,15.45
2022-10-11T15:13:55.655Z,15.63
2022-10-11T15:16:26.904Z,14.95
2022-10-11T15:18:56.838Z,15.20
2022-10-11T15:21:27.124Z,13.80
2022-10-11T15:23:57.433Z,14.80
2022-10-11T15:26:28.411Z,14.50
2022-10-11T15:28:58.852Z,15.85
2022-10-11T15:31:29.514Z,14.48
2022-10-11T15:34:01.306Z,14.48
2022-10-11T15:36:31.088Z,14.07
2022-10-11T15:39:00.937Z,15.63
2022-10-11T15:41:30.800Z,14.90
2022-10-11T15:44:00.657Z,13.45
2022-10-11T15:46:30.382Z,16.08
2022-10-11T15:49:04.450Z,15.10
2022-10-11T15:51:36.329Z,14.48
2022-10-11T15:54:06.063Z,15.40
2022-10-11T15:56:35.991Z,15.90
2022-10-11T15:59:05.604Z,15.48
2022-10-11T16:01:35.399Z,15.02
2022-10-11T16:04:05.233Z,14.52
2022-10-11T16:06:34.985Z,14.45
2022-10-11T16:09:05.161Z,14.57
2022-10-11T16:11:35.095Z,14.27
2022-10-11T16:14:04.834Z,14.20
2022-10-11T16:16:34.484Z,14.60
2022-10-11T16:19:04.174Z,13.80
2022-10-11T16:21:34.094Z,12.30
2022-10-11T16:24:03.882Z,13.70
2022-10-11T16:26:33.712Z,14.43
2022-10-11T16:29:03.575Z,13.23
2022-10-11T16:31:33.527Z,12.73
2022-10-11T16:34:03.770Z,13.27
2022-10-11T16:36:33.527Z,12.27
2022-10-11T16:39:03.538Z,12.80
2022-10-11T16:41:33.273Z,13.32
2022-10-11T16:44:03.108Z,11.77
2022-10-11T16:46:33.027Z,12.75
2022-10-11T16:49:02.730Z,11.23
2022-10-11T16:51:32.592Z,11.07
2022-10-11T16:54:02.266Z,9.52
2022-10-11T16:56:34.875Z,10.23
2022-10-11T16:59:07.351Z,11.45
2022-10-11T17:01:36.968Z,11.77
2022-10-11T17:04:07.941Z,18.23
2022-10-11T17:06:37.765Z,19.98
2022-10-11T17:09:07.493Z,19.80
2022-10-11T17:11:37.121Z,19.10
2022-10-11T17:14:07.397Z,16.88
2022-10-11T17:16:37.698Z,13.60
2022-10-11T17:19:07.667Z,11.63
2022-10-11T17:21:37.461Z,12.20
2022-10-11T17:24:07.402Z,10.18
2022-10-11T17:26:37.073Z,10.18
2022-10-11T17:29:06.674Z,11.15
2022-10-11T17:31:38.734Z,10.55
2022-10-11T17:34:08.863Z,9.95
2022-10-11T17:36:38.523Z,10.57
2022-10-11T17:39:09.467Z,9.80
2022-10-11T17:41:39.365Z,10.25
2022-10-11T17:44:09.123Z,8.73
2022-10-11T17:46:38.993Z,9.02
2022-10-11T17:49:09.625Z,8.65
2022-10-11T17:51:39.624Z,8.68
2022-10-11T17:54:13.717Z,9.05
2022-10-11T17:56:43.604Z,7.95
2022-10-11T17:59:20.062Z,8.20
2022-10-11T18:01:49.958Z,8.02
2022-10-11T18:04:19.764Z,7.32
2022-10-11T18:06:49.453Z,7.60
2022-10-11T18:09:19.994Z,8.15
2022-10-11T18:11:49.928Z,7.22
2022-10-11T18:14:19.692Z,6.72
2022-10-11T18:16:49.723Z,7.90
2022-10-11T18:19:19.427Z,7.00
2022-10-11T18:21:49.116Z,7.75
2022-10-11T18:24:18.925Z,7.18
2022-10-11T18:26:48.649Z,5.88
2022-10-11T18:29:18.707Z,5.68
2022-10-11T18:31:48.707Z,6.00
2022-10-11T18:34:18.559Z,5.57
2022-10-11T18:36:48.845Z,5.63
2022-10-11T18:39:18.576Z,6.35
2022-10-11T18:41:48.649Z,4.75
2022-10-11T18:44:18.337Z,4.93
2022-10-11T18:46:48.313Z,6.38
2022-10-11T18:49:18.225Z,5.43
2022-10-11T18:51:48.452Z,5.50
2022-10-11T18:54:20.294Z,4.85
2022-10-11T18:56:51.342Z,5.88
2022-10-11T18:59:21.705Z,4.95
2022-10-11T19:01:53.635Z,4.35
2022-10-11T19:04:23.718Z,4.88
2022-10-11T19:06:54.691Z,5.82
2022-10-11T19:09:26.165Z,5.05
2022-10-11T19:11:57.688Z,4.75
2022-10-11T19:14:28.238Z,4.75
2022-10-11T19:16:58.423Z,4.82
2022-10-11T19:19:29.242Z,6.63
2022-10-11T19:21:58.936Z,4.40
2022-10-11T19:24:29.792Z,5.10
2022-10-11T19:27:02.545Z,4.47
2022-10-11T19:29:32.936Z,5.93
2022-10-11T19:32:04.940Z,5.03
2022-10-11T19:34:34.816Z,4.68
2022-10-11T19:37:05.534Z,4.28
2022-10-11T19:39:35.559Z,5.10
2022-10-11T19:42:06.286Z,5.78
2022-10-11T19:44:40.754Z,6.03
2022-10-11T19:47:11.456Z,5.82
2022-10-11T19:49:41.102Z,4.85
2022-10-11T19:52:11.118Z,5.00
2022-10-11T19:54:41.027Z,4.80
2022-10-11T19:57:10.882Z,4.60
2022-10-11T19:59:40.615Z,5.10
2022-10-11T20:02:11.502Z,4.60
2022-10-11T20:04:52.470Z,5.00
2022-10-11T20:07:22.756Z,6.30
2022-10-11T20:09:52.557Z,4.95
2022-10-11T20:12:22.679Z,4.93
2022-10-11T20:14:52.591Z,4.65
2022-10-11T20:17:22.247Z,4.05
2022-10-11T20:19:54.170Z,4.43
2022-10-11T20:22:23.915Z,4.60
2022-10-11T20:24:53.649Z,4.50
2022-10-11T20:27:23.291Z,4.43
2022-10-11T20:29:52.941Z,4.63
2022-10-11T20:32:22.797Z,4.55
2022-10-11T20:34:52.780Z,3.85
2022-10-11T20:37:22.726Z,5.00
2022-10-11T20:39:52.344Z,4.43
2022-10-11T20:42:29.955Z,4.25
2022-10-11T20:45:00.446Z,4.47
2022-10-11T20:47:33.030Z,4.60
2022-10-11T20:50:03.101Z,4.93
2022-10-11T20:52:33.419Z,4.53
2022-10-11T20:55:03.252Z,5.10
2022-10-11T20:57:33.239Z,4.35
2022-10-11T21:00:03.062Z,4.80
2022-10-11T21:02:32.896Z,4.10
2022-10-11T21:05:02.717Z,4.05
2022-10-11T21:07:32.685Z,4.50
2022-10-11T21:10:02.698Z,4.88
2022-10-11T21:12:32.569Z,4.65
2022-10-11T21:15:02.678Z,4.97
2022-10-11T21:17:32.339Z,4.85
2022-10-11T21:20:04.870Z,4.45
2022-10-11T21:22:35.266Z,4.85
2022-10-11T21:25:05.330Z,4.88
2022-10-11T21:27:35.441Z,4.20
2022-10-11T21:30:05.252Z,4.93
2022-10-11T21:32:36.223Z,4.30
2022-10-11T21:35:06.699Z,4.60
2022-10-11T21:37:36.785Z,3.95
2022-10-11T21:40:06.970Z,5.18
2022-10-11T21:42:37.206Z,4.47
2022-10-11T21:45:07.763Z,4.32
2022-10-11T21:47:39.144Z,4.57
2022-10-11T21:50:10.184Z,4.47
2022-10-11T21:52:40.102Z,4.35
2022-10-11T21:55:10.181Z,5.10
2022-10-11T21:57:39.922Z,4.43
2022-10-11T22:00:10.193Z,3.78
2022-10-11T22:02:43.436Z,5.13
2022-10-11T22:05:13.093Z,4.63
2022-10-11T22:07:42.681Z,5.07
2022-10-11T22:10:12.443Z,4.95
2022-10-11T22:12:42.250Z,5.38
2022-10-11T22:15:13.883Z,3.85
2022-10-11T22:17:43.582Z,4.55
2022-10-11T22:20:13.424Z,4.70
2022-10-11T22:22:42.996Z,6.35
2022-10-11T22:25:12.704Z,5.07
2022-10-11T22:27:42.317Z,5.30
2022-10-11T22:30:12.381Z,5.05
2022-10-11T22:32:42.302Z,4.90
2022-10-11T22:35:12.908Z,6.53
2022-10-11T22:37:42.463Z,5.95
2022-10-11T22:40:12.290Z,5.78
2022-10-11T22:42:42.327Z,5.65
2022-10-11T22:45:12.349Z,6.20
2022-10-11T22:47:42.019Z,6.57
2022-10-11T22:50:12.108Z,5.20
2022-10-11T22:52:42.116Z,6.47
2022-10-11T22:55:14.151Z,5.53
2022-10-11T22:57:46.061Z,6.63
2022-10-11T23:00:15.884Z,6.20
2022-10-11T23:02:45.620Z,5.85
2022-10-11T23:05:18.039Z,6.13
2022-10-11T23:07:49.116Z,6.50
2022-10-11T23:10:18.918Z,6.68
2022-10-11T23:12:48.674Z,6.68
2022-10-11T23:15:18.398Z,7.13
2022-10-11T23:17:48.289Z,7.35
2022-10-11T23:20:18.226Z,6.53
2022-10-11T23:22:47.857Z,7.10
2022-10-11T23:25:17.667Z,6.80
2022-10-11T23:27:47.256Z,7.05
2022-10-11T23:30:16.866Z,7.13
2022-10-11T23:32:46.490Z,9.73
2022-10-11T23:35:16.176Z,9.07
2022-10-11T23:37:45.858Z,9.35
2022-10-11T23:40:16.617Z,8.70
2022-10-11T23:42:47.050Z,9.45
2022-10-11T23:45:17.025Z,8.48
2022-10-11T23:47:46.667Z,10.00
2022-10-11T23:50:16.298Z,9.90
2022-10-11T23:52:45.992Z,10.60
2022-10-11T23:55:15.583Z,10.68
2022-10-11T23:57:45.389Z,10.02
